createdAt,value
2023-04-18T00:00:02.558Z,1019.9
2023-04-18T00:01:02.529Z,1019.9
2023-04-18T00:02:02.783Z,1019.9
2023-04-18T00:03:05.550Z,1019.9
2023-04-18T00:04:02.928Z,1019.8
2023-04-18T00:05:02.618Z,1019.8
2023-04-18T00:06:02.390Z,1019.9
2023-04-18T00:07:02.341Z,1019.9
2023-04-18T00:08:02.300Z,1019.9
2023-04-18T00:09:02.436Z,1019.8
2023-04-18T00:10:02.145Z,1019.8
2023-04-18T00:11:02.176Z,1019.9
2023-04-18T00:12:01.991Z,1019.9
2023-04-18T00:13:02.002Z,1019.9
2023-04-18T00:14:01.916Z,1019.9
2023-04-18T00:15:02.063Z,1019.9
2023-04-18T00:16:01.876Z,1019.9
2023-04-18T00:17:01.912Z,1019.9
2023-04-18T00:18:01.846Z,1019.9
2023-04-18T00:19:02.616Z,1019.9
2023-04-18T00:20:02.580Z,1019.9
2023-04-18T00:21:02.567Z,1019.9
2023-04-18T00:22:02.439Z,1020
2023-04-18T00:23:02.481Z,1019.9
2023-04-18T00:24:02.382Z,1019.9
2023-04-18T00:25:02.492Z,1019.9
2023-04-18T00:26:02.371Z,1019.9
2023-04-18T00:27:02.352Z,1020
2023-04-18T00:28:02.410Z,1020
2023-04-18T00:29:02.163Z,1020
2023-04-18T00:30:02.192Z,1019.9
2023-04-18T00:31:02.356Z,1019.9
2023-04-18T00:32:02.099Z,1020
2023-04-18T00:33:02.191Z,1020
2023-04-18T00:34:01.875Z,1020
2023-04-18T00:35:01.960Z,1020
2023-04-18T00:36:01.795Z,1020
2023-04-18T00:37:01.909Z,1020
2023-04-18T00:38:01.696Z,1020
2023-04-18T00:39:01.752Z,1020
2023-04-18T00:40:02.657Z,1020
2023-04-18T00:41:02.531Z,1020
2023-04-18T00:42:02.533Z,1020
2023-04-18T00:43:02.463Z,1020
2023-04-18T00:44:02.457Z,1020
2023-04-18T00:45:02.439Z,1020
2023-04-18T00:46:02.525Z,1020
2023-04-18T00:47:02.616Z,1020
2023-04-18T00:48:02.690Z,1019.9
2023-04-18T00:49:02.537Z,1020
2023-04-18T00:50:02.353Z,1020
2023-04-18T00:51:02.486Z,1020
2023-04-18T00:52:02.462Z,1020
2023-04-18T00:53:02.134Z,1019.9
2023-04-18T00:54:02.158Z,1020
2023-04-18T00:55:02.224Z,1020
2023-04-18T00:56:02.091Z,1020
2023-04-18T00:57:02.142Z,1019.9
2023-04-18T00:58:02.045Z,1019.9
2023-04-18T00:59:02.082Z,1020
2023-04-18T01:00:03.386Z,1019.9
2023-04-18T01:01:02.280Z,1019.9
2023-04-18T01:03:02.422Z,1020
2023-04-18T01:04:02.758Z,1020
2023-04-18T01:05:02.562Z,1019.9
2023-04-18T01:06:02.541Z,1019.9
2023-04-18T01:07:02.470Z,1020
2023-04-18T01:08:02.525Z,1019.9
2023-04-18T01:09:02.414Z,1019.9
2023-04-18T01:10:02.373Z,1019.9
2023-04-18T01:11:02.342Z,1019.9
2023-04-18T01:12:02.192Z,1019.9
2023-04-18T01:13:02.204Z,1019.9
2023-04-18T01:14:02.094Z,1019.9
2023-04-18T01:15:02.150Z,1019.9
2023-04-18T01:16:02.080Z,1019.9
2023-04-18T01:17:02.085Z,1019.9
2023-04-18T01:18:02.313Z,1020
2023-04-18T01:19:01.992Z,1020
2023-04-18T01:20:02.107Z,1020
2023-04-18T01:21:01.920Z,1020
2023-04-18T01:22:01.886Z,1020
2023-04-18T01:23:01.774Z,1019.9
2023-04-18T01:24:01.927Z,1020
2023-04-18T01:25:01.684Z,1019.9
2023-04-18T01:26:01.793Z,1019.9
2023-04-18T01:27:02.649Z,1019.9
2023-04-18T01:28:02.607Z,1019.9
2023-04-18T01:29:02.625Z,1019.8
2023-04-18T01:30:02.736Z,1019.8
2023-04-18T01:31:02.491Z,1019.9
2023-04-18T01:32:02.454Z,1019.8
2023-04-18T01:33:02.787Z,1019.9
2023-04-18T01:34:02.404Z,1019.9
2023-04-18T01:35:02.530Z,1019.9
2023-04-18T01:36:02.478Z,1019.9
2023-04-18T01:37:02.591Z,1019.8
2023-04-18T01:38:02.415Z,1019.9
2023-04-18T01:39:02.453Z,1019.9
2023-04-18T01:40:02.399Z,1019.9
2023-04-18T01:41:02.224Z,1019.8
2023-04-18T01:42:02.348Z,1019.9
2023-04-18T01:43:02.374Z,1019.9
2023-04-18T01:44:02.079Z,1019.9
2023-04-18T01:45:02.174Z,1019.9
2023-04-18T01:46:01.988Z,1019.8
2023-04-18T01:47:02.371Z,1019.8
2023-04-18T01:48:02.433Z,1019.9
2023-04-18T01:49:02.118Z,1019.9
2023-04-18T01:50:02.186Z,1019.9
2023-04-18T01:51:02.203Z,1019.9
2023-04-18T01:52:02.026Z,1019.9
2023-04-18T01:53:02.015Z,1019.9
2023-04-18T01:54:01.956Z,1019.9
2023-04-18T01:55:02.035Z,1019.8
2023-04-18T01:56:01.792Z,1019.8
2023-04-18T01:57:01.811Z,1019.9
2023-04-18T01:58:01.731Z,1019.9
2023-04-18T01:59:01.731Z,1019.9
2023-04-18T02:00:03.181Z,1019.8
2023-04-18T02:01:02.209Z,1019.9
2023-04-18T02:02:02.798Z,1019.9
2023-04-18T02:03:03.157Z,1019.9
2023-04-18T02:04:02.142Z,1019.8
2023-04-18T02:05:01.908Z,1019.8
2023-04-18T02:06:02.004Z,1019.9
2023-04-18T02:07:01.829Z,1019.8
2023-04-18T02:08:01.747Z,1019.9
2023-04-18T02:09:01.765Z,1019.8
2023-04-18T02:10:01.523Z,1019.8
2023-04-18T02:11:02.601Z,1019.7
2023-04-18T02:12:02.560Z,1019.8
2023-04-18T02:13:02.529Z,1019.8
2023-04-18T02:14:02.468Z,1019.9
2023-04-18T02:15:02.518Z,1019.8
2023-04-18T02:16:02.406Z,1019.8
2023-04-18T02:17:02.323Z,1019.8
2023-04-18T02:18:02.742Z,1019.8
2023-04-18T02:19:02.475Z,1019.8
2023-04-18T02:20:02.395Z,1019.8
2023-04-18T02:21:02.369Z,1019.7
2023-04-18T02:22:02.411Z,1019.7
2023-04-18T02:23:02.272Z,1019.7
2023-04-18T02:24:02.362Z,1019.7
2023-04-18T02:25:02.219Z,1019.8
2023-04-18T02:26:02.108Z,1019.7
2023-04-18T02:27:02.120Z,1019.7
2023-04-18T02:28:01.966Z,1019.7
2023-04-18T02:29:02.050Z,1019.7
2023-04-18T02:30:01.939Z,1019.8
2023-04-18T02:31:02.014Z,1019.8
2023-04-18T02:33:02.822Z,1019.7
2023-04-18T02:34:02.491Z,1019.7
2023-04-18T02:35:02.608Z,1019.7
2023-04-18T02:36:02.531Z,1019.7
2023-04-18T02:37:02.465Z,1019.8
2023-04-18T02:38:02.528Z,1019.8
2023-04-18T02:39:02.402Z,1019.8
2023-04-18T02:40:02.330Z,1019.8
2023-04-18T02:41:02.331Z,1019.8
2023-04-18T02:42:02.304Z,1019.8
2023-04-18T02:43:02.253Z,1019.8
2023-04-18T02:44:02.171Z,1019.8
2023-04-18T02:45:02.162Z,1019.8
2023-04-18T02:46:02.293Z,1019.8
2023-04-18T02:47:02.021Z,1019.8
2023-04-18T02:48:02.027Z,1019.9
2023-04-18T02:49:01.753Z,1019.9
2023-04-18T02:50:01.888Z,1019.9
2023-04-18T02:51:01.671Z,1019.9
2023-04-18T02:52:01.768Z,1019.9
2023-04-18T02:53:02.694Z,1019.9
2023-04-18T02:54:02.599Z,1019.8
2023-04-18T02:55:02.673Z,1019.9
2023-04-18T02:56:02.536Z,1019.8
2023-04-18T02:57:02.670Z,1019.9
2023-04-18T02:58:02.482Z,1019.9
2023-04-18T02:59:02.470Z,1019.9
2023-04-18T03:00:02.798Z,1019.9
2023-04-18T03:01:01.929Z,1019.9
2023-04-18T03:02:02.475Z,1019.9
2023-04-18T03:03:02.555Z,1019.9
2023-04-18T03:04:02.558Z,1019.9
2023-04-18T03:05:02.676Z,1019.9
2023-04-18T03:06:02.387Z,1019.9
2023-04-18T03:07:02.411Z,1019.9
2023-04-18T03:08:02.535Z,1019.8
2023-04-18T03:09:02.155Z,1019.9
2023-04-18T03:10:02.400Z,1020
2023-04-18T03:11:02.266Z,1019.9
2023-04-18T03:12:02.035Z,1020
2023-04-18T03:13:02.218Z,1019.9
2023-04-18T03:14:02.013Z,1019.9
2023-04-18T03:15:01.991Z,1019.9
2023-04-18T03:16:01.972Z,1019.9
2023-04-18T03:17:01.844Z,1019.9
2023-04-18T03:18:02.148Z,1019.9
2023-04-18T03:19:01.824Z,1019.8
2023-04-18T03:20:01.887Z,1019.9
2023-04-18T03:21:01.677Z,1019.9
2023-04-18T03:22:01.690Z,1019.9
2023-04-18T03:23:02.617Z,1019.9
2023-04-18T03:24:02.684Z,1019.9
2023-04-18T03:25:02.606Z,1019.9
2023-04-18T03:26:02.579Z,1019.9
2023-04-18T03:27:02.602Z,1019.9
2023-04-18T03:28:02.643Z,1020
2023-04-18T03:29:02.533Z,1020
2023-04-18T03:30:02.364Z,1019.9
2023-04-18T03:31:02.584Z,1020
2023-04-18T03:33:03.136Z,1019.9
2023-04-18T03:34:01.839Z,1020
2023-04-18T03:35:01.824Z,1020
2023-04-18T03:36:01.667Z,1020
2023-04-18T03:37:01.705Z,1020
2023-04-18T03:38:02.689Z,1020
2023-04-18T03:39:02.616Z,1020
2023-04-18T03:40:02.650Z,1020
2023-04-18T03:41:02.521Z,1020.1
2023-04-18T03:42:02.581Z,1020
2023-04-18T03:43:02.490Z,1020
2023-04-18T03:44:02.487Z,1020.1
2023-04-18T03:45:02.432Z,1020.1
2023-04-18T03:46:02.772Z,1020.1
2023-04-18T03:48:02.852Z,1020
2023-04-18T03:49:02.533Z,1020
2023-04-18T03:50:02.633Z,1020
2023-04-18T03:51:02.569Z,1020
2023-04-18T03:52:02.566Z,1020
2023-04-18T03:53:02.456Z,1020.1
2023-04-18T03:54:02.528Z,1020.1
2023-04-18T03:55:02.353Z,1020.1
2023-04-18T03:56:02.437Z,1020.1
2023-04-18T03:57:02.429Z,1020.1
2023-04-18T03:58:02.205Z,1020.1
2023-04-18T03:59:02.450Z,1020.1
2023-04-18T04:00:02.959Z,1020.1
2023-04-18T04:01:01.929Z,1020.1
2023-04-18T04:02:02.611Z,1020.1
2023-04-18T04:03:02.902Z,1020
2023-04-18T04:04:03.134Z,1020.1
2023-04-18T04:05:02.150Z,1020.1
2023-04-18T04:06:02.148Z,1020.1
2023-04-18T04:07:01.790Z,1020.1
2023-04-18T04:08:01.789Z,1020.1
2023-04-18T04:09:01.822Z,1020.1
2023-04-18T04:10:01.907Z,1020.2
2023-04-18T04:11:01.630Z,1020.2
2023-04-18T04:12:01.750Z,1020.2
2023-04-18T04:13:02.694Z,1020.1
2023-04-18T04:14:02.556Z,1020.2
2023-04-18T04:15:02.774Z,1020.2
2023-04-18T04:16:02.586Z,1020.2
2023-04-18T04:18:01.961Z,1020.3
2023-04-18T04:19:01.717Z,1020.3
2023-04-18T04:20:02.691Z,1020.3
2023-04-18T04:21:02.554Z,1020.3
2023-04-18T04:22:02.739Z,1020.3
2023-04-18T04:23:02.541Z,1020.3
2023-04-18T04:24:02.595Z,1020.3
2023-04-18T04:25:02.473Z,1020.2
2023-04-18T04:26:02.613Z,1020.3
2023-04-18T04:27:02.237Z,1020.3
2023-04-18T04:28:02.236Z,1020.3
2023-04-18T04:29:02.061Z,1020.3
2023-04-18T04:30:02.057Z,1020.3
2023-04-18T04:31:02.016Z,1020.3
2023-04-18T04:32:02.365Z,1020.4
2023-04-18T04:33:02.541Z,1020.4
2023-04-18T04:34:02.326Z,1020.4
2023-04-18T04:35:02.178Z,1020.4
2023-04-18T04:36:02.208Z,1020.4
2023-04-18T04:37:02.062Z,1020.4
2023-04-18T04:38:02.143Z,1020.5
2023-04-18T04:39:01.977Z,1020.5
2023-04-18T04:40:01.860Z,1020.5
2023-04-18T04:41:01.714Z,1020.4
2023-04-18T04:42:01.700Z,1020.4
2023-04-18T04:43:01.605Z,1020.5
2023-04-18T04:44:02.693Z,1020.5
2023-04-18T04:45:02.675Z,1020.4
2023-04-18T04:46:02.841Z,1020.5
2023-04-18T04:47:02.439Z,1020.5
2023-04-18T04:48:02.746Z,1020.5
2023-04-18T04:49:02.359Z,1020.5
2023-04-18T04:50:02.495Z,1020.5
2023-04-18T04:51:02.401Z,1020.5
2023-04-18T04:52:02.485Z,1020.6
2023-04-18T04:53:02.324Z,1020.6
2023-04-18T04:54:02.290Z,1020.6
2023-04-18T04:55:02.121Z,1020.5
2023-04-18T04:56:02.192Z,1020.5
2023-04-18T04:57:01.997Z,1020.6
2023-04-18T04:58:02.039Z,1020.5
2023-04-18T04:59:01.922Z,1020.6
2023-04-18T05:00:02.653Z,1020.6
2023-04-18T05:01:02.780Z,1020.6
2023-04-18T05:03:02.778Z,1020.7
2023-04-18T05:04:02.068Z,1020.7
2023-04-18T05:05:02.092Z,1020.7
2023-04-18T05:06:01.789Z,1020.7
2023-04-18T05:07:01.841Z,1020.7
2023-04-18T05:08:01.744Z,1020.6
2023-04-18T05:09:01.783Z,1020.6
2023-04-18T05:10:01.604Z,1020.6
2023-04-18T05:11:02.669Z,1020.7
2023-04-18T05:12:02.535Z,1020.7
2023-04-18T05:13:02.568Z,1020.6
2023-04-18T05:14:02.682Z,1020.7
2023-04-18T05:15:02.609Z,1020.7
2023-04-18T05:16:02.576Z,1020.6
2023-04-18T05:17:02.938Z,1020.7
2023-04-18T05:18:02.967Z,1020.6
2023-04-18T05:19:01.665Z,1020.7
2023-04-18T05:20:01.752Z,1020.7
2023-04-18T05:21:02.568Z,1020.7
2023-04-18T05:22:02.539Z,1020.7
2023-04-18T05:23:02.513Z,1020.7
2023-04-18T05:24:02.495Z,1020.7
2023-04-18T05:25:02.647Z,1020.8
2023-04-18T05:26:02.423Z,1020.7
2023-04-18T05:27:02.568Z,1020.8
2023-04-18T05:28:02.424Z,1020.8
2023-04-18T05:29:02.597Z,1020.8
2023-04-18T05:30:02.509Z,1020.9
2023-04-18T05:31:02.768Z,1020.8
2023-04-18T05:32:02.469Z,1020.8
2023-04-18T05:33:02.809Z,1020.8
2023-04-18T05:34:02.537Z,1020.8
2023-04-18T05:35:02.641Z,1020.9
2023-04-18T05:36:02.576Z,1020.9
2023-04-18T05:37:02.625Z,1020.9
2023-04-18T05:38:02.498Z,1020.9
2023-04-18T05:39:02.551Z,1020.9
2023-04-18T05:40:02.509Z,1020.9
2023-04-18T05:41:02.565Z,1020.8
2023-04-18T05:42:02.458Z,1020.8
2023-04-18T05:43:02.561Z,1020.8
2023-04-18T05:44:06.349Z,1020.9
2023-04-18T05:45:02.042Z,1020.9
2023-04-18T05:46:02.194Z,1020.9
2023-04-18T05:48:02.376Z,1020.9
2023-04-18T05:49:02.237Z,1020.9
2023-04-18T05:50:01.969Z,1020.9
2023-04-18T05:51:02.037Z,1020.9
2023-04-18T05:52:01.909Z,1021
2023-04-18T05:53:01.960Z,1020.9
2023-04-18T05:54:01.826Z,1020.9
2023-04-18T05:55:01.808Z,1020.9
2023-04-18T05:56:01.740Z,1021
2023-04-18T05:57:05.026Z,1020.9
2023-04-18T05:58:01.631Z,1021
2023-04-18T05:59:01.672Z,1021
2023-04-18T06:00:03.460Z,1021
2023-04-18T06:01:02.387Z,1021
2023-04-18T06:02:02.671Z,1021
2023-04-18T06:03:03.252Z,1021
2023-04-18T06:04:02.557Z,1021
2023-04-18T06:05:03.313Z,1021
2023-04-18T06:06:02.502Z,1020.9
2023-04-18T06:07:02.205Z,1021
2023-04-18T06:08:02.173Z,1021
2023-04-18T06:09:02.092Z,1021.1
2023-04-18T06:10:02.284Z,1021
2023-04-18T06:11:02.004Z,1021
2023-04-18T06:12:02.097Z,1021.1
2023-04-18T06:13:01.898Z,1021.1
2023-04-18T06:14:01.947Z,1021.1
2023-04-18T06:15:01.829Z,1021.1
2023-04-18T06:16:02.072Z,1021
2023-04-18T06:17:02.691Z,1021.1
2023-04-18T06:18:02.682Z,1021.1
2023-04-18T06:19:02.610Z,1021.1
2023-04-18T06:20:02.430Z,1021
2023-04-18T06:21:02.520Z,1021
2023-04-18T06:22:02.458Z,1021
2023-04-18T06:23:02.616Z,1021.1
2023-04-18T06:24:02.620Z,1021.2
2023-04-18T06:25:02.542Z,1021
2023-04-18T06:26:02.488Z,1021
2023-04-18T06:27:02.445Z,1021
2023-04-18T06:28:02.383Z,1021
2023-04-18T06:29:02.477Z,1021
2023-04-18T06:30:02.418Z,1021.1
2023-04-18T06:31:02.512Z,1021.1
2023-04-18T06:32:02.578Z,1021.1
2023-04-18T06:33:02.657Z,1021.1
2023-04-18T06:34:02.408Z,1021.1
2023-04-18T06:35:02.425Z,1021.2
2023-04-18T06:36:02.431Z,1021.2
2023-04-18T06:37:02.450Z,1021.2
2023-04-18T06:38:02.297Z,1021.2
2023-04-18T06:39:02.344Z,1021.2
2023-04-18T06:40:02.314Z,1021.2
2023-04-18T06:41:02.206Z,1021.2
2023-04-18T06:42:02.651Z,1021.2
2023-04-18T06:43:05.212Z,1021.2
2023-04-18T06:44:15.147Z,1021.2
2023-04-18T06:45:01.870Z,1021.3
2023-04-18T06:46:02.171Z,1021.3
2023-04-18T06:48:01.931Z,1021.3
2023-04-18T06:49:01.706Z,1021.2
2023-04-18T06:50:01.584Z,1021.3
2023-04-18T06:51:02.622Z,1021.3
2023-04-18T06:52:02.514Z,1021.3
2023-04-18T06:53:02.588Z,1021.2
2023-04-18T06:54:02.537Z,1021.3
2023-04-18T06:55:02.607Z,1021.3
2023-04-18T06:56:02.456Z,1021.4
2023-04-18T06:57:02.532Z,1021.3
2023-04-18T06:58:02.328Z,1021.4
2023-04-18T06:59:02.448Z,1021.4
2023-04-18T07:00:02.569Z,1021.4
2023-04-18T07:01:02.687Z,1021.3
2023-04-18T07:03:02.643Z,1021.4
2023-04-18T07:04:02.922Z,1021.3
2023-04-18T07:05:01.712Z,1021.4
2023-04-18T07:06:01.751Z,1021.3
2023-04-18T07:07:01.627Z,1021.3
2023-04-18T07:08:01.719Z,1021.3
2023-04-18T07:09:02.636Z,1021.3
2023-04-18T07:10:02.668Z,1021.3
2023-04-18T07:11:02.596Z,1021.5
2023-04-18T07:12:02.482Z,1021.4
2023-04-18T07:13:02.576Z,1021.5
2023-04-18T07:14:02.449Z,1021.5
2023-04-18T07:15:02.523Z,1021.5
2023-04-18T07:16:02.399Z,1021.4
2023-04-18T07:17:02.417Z,1021.4
2023-04-18T07:18:02.420Z,1021.4
2023-04-18T07:19:02.273Z,1021.5
2023-04-18T07:20:02.231Z,1021.5
2023-04-18T07:21:02.156Z,1021.4
2023-04-18T07:22:02.101Z,1021.5
2023-04-18T07:23:02.181Z,1021.5
2023-04-18T07:24:02.079Z,1021.5
2023-04-18T07:25:02.085Z,1021.4
2023-04-18T07:26:01.931Z,1021.5
2023-04-18T07:27:02.009Z,1021.5
2023-04-18T07:28:01.932Z,1021.5
2023-04-18T07:29:02.052Z,1021.4
2023-04-18T07:30:01.862Z,1021.5
2023-04-18T07:31:02.020Z,1021.5
2023-04-18T07:32:01.694Z,1021.4
2023-04-18T07:33:01.974Z,1021.5
2023-04-18T07:34:01.714Z,1021.5
2023-04-18T07:35:02.721Z,1021.5
2023-04-18T07:36:02.570Z,1021.5
2023-04-18T07:37:02.739Z,1021.5
2023-04-18T07:38:02.580Z,1021.5
2023-04-18T07:39:02.530Z,1021.6
2023-04-18T07:40:02.539Z,1021.5
2023-04-18T07:41:02.558Z,1021.5
2023-04-18T07:42:02.432Z,1021.6
2023-04-18T07:43:02.601Z,1021.6
2023-04-18T07:44:02.436Z,1021.6
2023-04-18T07:45:02.468Z,1021.6
2023-04-18T07:46:02.550Z,1021.5
2023-04-18T07:48:02.342Z,1021.6
2023-04-18T07:49:02.082Z,1021.6
2023-04-18T07:50:02.313Z,1021.5
2023-04-18T07:51:02.060Z,1021.6
2023-04-18T07:52:02.154Z,1021.6
2023-04-18T07:53:01.999Z,1021.6
2023-04-18T07:54:02.103Z,1021.6
2023-04-18T07:55:02.000Z,1021.6
2023-04-18T07:56:02.069Z,1021.6
2023-04-18T07:57:02.204Z,1021.6
2023-04-18T07:58:01.928Z,1021.6
2023-04-18T07:59:01.989Z,1021.6
2023-04-18T08:00:02.441Z,1021.6
2023-04-18T08:01:02.091Z,1021.6
2023-04-18T08:02:02.789Z,1021.6
2023-04-18T08:03:03.213Z,1021.6
2023-04-18T08:04:03.074Z,1021.6
2023-04-18T08:05:02.144Z,1021.6
2023-04-18T08:06:01.824Z,1021.6
2023-04-18T08:07:01.894Z,1021.6
2023-04-18T08:08:01.800Z,1021.6
2023-04-18T08:09:01.688Z,1021.6
2023-04-18T08:10:02.685Z,1021.7
2023-04-18T08:11:02.554Z,1021.7
2023-04-18T08:12:02.688Z,1021.7
2023-04-18T08:13:02.560Z,1021.6
2023-04-18T08:14:02.562Z,1021.7
2023-04-18T08:15:02.448Z,1021.7
2023-04-18T08:16:02.614Z,1021.7
2023-04-18T08:18:02.037Z,1021.8
2023-04-18T08:19:01.761Z,1021.8
2023-04-18T08:20:01.946Z,1021.7
2023-04-18T08:21:01.615Z,1021.7
2023-04-18T08:22:02.681Z,1021.8
2023-04-18T08:23:13.505Z,1021.8
2023-04-18T08:24:02.223Z,1021.8
2023-04-18T08:25:06.223Z,1021.7
2023-04-18T08:26:01.827Z,1021.8
2023-04-18T08:27:01.881Z,1021.7
2023-04-18T08:28:01.768Z,1021.7
2023-04-18T08:29:01.788Z,1021.8
2023-04-18T08:30:01.599Z,1021.8
2023-04-18T08:31:02.662Z,1021.8
2023-04-18T08:32:02.912Z,1021.9
2023-04-18T08:33:03.031Z,1021.7
2023-04-18T08:34:05.543Z,1021.8
2023-04-18T08:35:02.254Z,1021.7
2023-04-18T08:36:02.188Z,1021.9
2023-04-18T08:37:02.052Z,1021.8
2023-04-18T08:38:02.324Z,1021.8
2023-04-18T08:39:02.014Z,1021.8
2023-04-18T08:40:02.070Z,1021.8
2023-04-18T08:41:01.875Z,1021.8
2023-04-18T08:42:01.910Z,1021.8
2023-04-18T08:43:01.794Z,1021.8
2023-04-18T08:44:01.808Z,1021.9
2023-04-18T08:45:01.627Z,1021.8
2023-04-18T08:46:02.750Z,1021.9
2023-04-18T08:48:02.729Z,1021.9
2023-04-18T08:49:02.553Z,1021.8
2023-04-18T08:50:02.615Z,1021.9
2023-04-18T08:51:02.690Z,1021.9
2023-04-18T08:52:02.610Z,1021.9
2023-04-18T08:53:02.575Z,1021.9
2023-04-18T08:54:02.558Z,1021.9
2023-04-18T08:55:02.444Z,1021.9
2023-04-18T08:56:02.515Z,1021.8
2023-04-18T08:57:02.344Z,1021.9
2023-04-18T08:58:02.395Z,1021.9
2023-04-18T08:59:02.421Z,1021.9
2023-04-18T09:00:03.268Z,1021.9
2023-04-18T09:01:02.298Z,1021.9
2023-04-18T09:02:02.605Z,1021.9
2023-04-18T09:03:02.812Z,1021.8
2023-04-18T09:04:01.992Z,1021.9
2023-04-18T09:05:01.745Z,1021.8
2023-04-18T09:06:01.630Z,1021.8
2023-04-18T09:07:01.666Z,1021.8
2023-04-18T09:08:02.595Z,1021.9
2023-04-18T09:09:02.578Z,1021.9
2023-04-18T09:10:02.605Z,1021.8
2023-04-18T09:11:02.522Z,1021.9
2023-04-18T09:12:02.553Z,1021.9
2023-04-18T09:13:02.497Z,1021.8
2023-04-18T09:14:02.582Z,1021.8
2023-04-18T09:15:02.501Z,1021.8
2023-04-18T09:16:02.234Z,1021.8
2023-04-18T09:17:02.628Z,1021.8
2023-04-18T09:18:03.036Z,1021.8
2023-04-18T09:19:01.842Z,1021.8
2023-04-18T09:20:01.939Z,1021.8
2023-04-18T09:21:01.848Z,1021.9
2023-04-18T09:22:01.892Z,1021.8
2023-04-18T09:23:01.772Z,1021.9
2023-04-18T09:24:01.823Z,1021.9
2023-04-18T09:25:01.714Z,1021.8
2023-04-18T09:26:01.837Z,1021.9
2023-04-18T09:27:01.740Z,1021.8
2023-04-18T09:28:01.884Z,1021.9
2023-04-18T09:29:01.652Z,1021.8
2023-04-18T09:30:01.800Z,1021.8
2023-04-18T09:31:01.875Z,1021.7
2023-04-18T09:32:02.088Z,1021.8
2023-04-18T09:33:03.507Z,1021.7
2023-04-18T09:34:02.267Z,1021.8
2023-04-18T09:35:05.297Z,1021.8
2023-04-18T09:36:01.958Z,1021.7
2023-04-18T09:37:02.189Z,1021.7
2023-04-18T09:38:01.902Z,1021.9
2023-04-18T09:39:02.012Z,1021.8
2023-04-18T09:40:01.874Z,1021.9
2023-04-18T09:41:01.974Z,1021.7
2023-04-18T09:42:01.830Z,1021.7
2023-04-18T09:43:01.925Z,1021.8
2023-04-18T09:44:01.749Z,1021.8
2023-04-18T09:45:01.889Z,1021.7
2023-04-18T09:46:02.029Z,1021.7
2023-04-18T09:47:01.844Z,1021.8
2023-04-18T09:48:01.894Z,1021.8
2023-04-18T09:49:01.765Z,1021.7
2023-04-18T09:50:01.691Z,1021.7
2023-04-18T09:51:02.647Z,1021.7
2023-04-18T09:52:02.528Z,1021.7
2023-04-18T09:53:02.674Z,1021.6
2023-04-18T09:54:02.545Z,1021.7
2023-04-18T09:55:02.519Z,1021.7
2023-04-18T09:56:02.350Z,1021.7
2023-04-18T09:57:02.496Z,1021.7
2023-04-18T09:58:02.368Z,1021.7
2023-04-18T09:59:02.661Z,1021.8
2023-04-18T10:00:03.001Z,1021.7
2023-04-18T10:01:01.917Z,1021.7
2023-04-18T10:02:02.427Z,1021.7
2023-04-18T10:03:02.748Z,1021.7
2023-04-18T10:04:02.802Z,1021.7
2023-04-18T10:05:02.821Z,1021.7
2023-04-18T10:06:02.565Z,1021.7
2023-04-18T10:07:02.487Z,1021.6
2023-04-18T10:08:02.580Z,1021.7
2023-04-18T10:09:02.393Z,1021.7
2023-04-18T10:10:02.542Z,1021.8
2023-04-18T10:11:02.389Z,1021.7
2023-04-18T10:12:02.436Z,1021.7
2023-04-18T10:13:02.447Z,1021.7
2023-04-18T10:14:02.250Z,1021.7
2023-04-18T10:15:02.431Z,1021.7
2023-04-18T10:16:02.444Z,1021.7
2023-04-18T10:17:02.350Z,1021.6
2023-04-18T10:18:06.807Z,1021.7
2023-04-18T10:19:02.593Z,1021.6
2023-04-18T10:20:02.533Z,1021.5
2023-04-18T10:21:02.464Z,1021.5
2023-04-18T10:22:02.388Z,1021.5
2023-04-18T10:23:02.387Z,1021.6
2023-04-18T10:24:02.424Z,1021.6
2023-04-18T10:25:02.301Z,1021.6
2023-04-18T10:26:02.072Z,1021.6
2023-04-18T10:27:02.155Z,1021.6
2023-04-18T10:28:02.070Z,1021.7
2023-04-18T10:29:02.058Z,1021.6
2023-04-18T10:30:01.956Z,1021.6
2023-04-18T10:31:02.124Z,1021.5
2023-04-18T10:32:01.820Z,1021.6
2023-04-18T10:33:01.993Z,1021.5
2023-04-18T10:34:06.646Z,1021.6
2023-04-18T10:35:02.359Z,1021.6
2023-04-18T10:36:02.317Z,1021.6
2023-04-18T10:37:02.264Z,1021.5
2023-04-18T10:38:02.160Z,1021.6
2023-04-18T10:39:02.236Z,1021.5
2023-04-18T10:40:02.343Z,1021.5
2023-04-18T10:41:02.067Z,1021.5
2023-04-18T10:42:02.062Z,1021.5
2023-04-18T10:43:02.051Z,1021.4
2023-04-18T10:44:02.007Z,1021.5
2023-04-18T10:45:03.033Z,1021.5
2023-04-18T10:46:01.648Z,1021.5
2023-04-18T10:47:01.894Z,1021.5
2023-04-18T10:48:01.847Z,1021.4
2023-04-18T10:49:01.659Z,1021.4
2023-04-18T10:50:07.012Z,1021.4
2023-04-18T10:51:01.826Z,1021.5
2023-04-18T10:52:02.289Z,1021.4
2023-04-18T10:53:02.099Z,1021.5
2023-04-18T10:54:02.062Z,1021.5
2023-04-18T10:55:01.939Z,1021.4
2023-04-18T10:56:01.986Z,1021.4
2023-04-18T10:57:01.790Z,1021.3
2023-04-18T10:58:01.964Z,1021.4
2023-04-18T10:59:01.795Z,1021.4
2023-04-18T11:00:03.055Z,1021.3
2023-04-18T11:01:02.200Z,1021.3
2023-04-18T11:02:01.676Z,1021.2
2023-04-18T11:03:02.366Z,1021.3
2023-04-18T11:04:02.680Z,1021.3
2023-04-18T11:05:02.381Z,1021.2
2023-04-18T11:06:03.305Z,1021.3
2023-04-18T11:07:02.545Z,1021.3
2023-04-18T11:08:02.377Z,1021.3
2023-04-18T11:09:02.444Z,1021.3
2023-04-18T11:10:02.466Z,1021.3
2023-04-18T11:11:02.774Z,1021.4
2023-04-18T11:12:02.758Z,1021.3
2023-04-18T11:13:02.563Z,1021.4
2023-04-18T11:14:02.444Z,1021.2
2023-04-18T11:15:02.495Z,1021.2
2023-04-18T11:16:02.457Z,1021.3
2023-04-18T11:17:02.471Z,1021.3
2023-04-18T11:18:02.466Z,1021.3
2023-04-18T11:19:02.354Z,1021.4
2023-04-18T11:20:02.228Z,1021.3
2023-04-18T11:21:02.133Z,1021.3
2023-04-18T11:22:02.312Z,1021.4
2023-04-18T11:23:02.007Z,1021.3
2023-04-18T11:24:02.001Z,1021.3
2023-04-18T11:25:02.022Z,1021.3
2023-04-18T11:26:01.866Z,1021.3
2023-04-18T11:27:01.754Z,1021.3
2023-04-18T11:28:01.783Z,1021.3
2023-04-18T11:29:01.665Z,1021.3
2023-04-18T11:30:02.703Z,1021.3
2023-04-18T11:31:02.507Z,1021.3
2023-04-18T11:32:02.637Z,1021.3
2023-04-18T11:33:02.672Z,1021.3
2023-04-18T11:34:02.722Z,1021.3
2023-04-18T11:35:02.508Z,1021.2
2023-04-18T11:36:02.400Z,1021.3
2023-04-18T11:37:02.407Z,1021.3
2023-04-18T11:38:02.219Z,1021.3
2023-04-18T11:39:02.406Z,1021.3
2023-04-18T11:40:02.276Z,1021.3
2023-04-18T11:41:02.266Z,1021.3
2023-04-18T11:42:02.152Z,1021.2
2023-04-18T11:43:02.078Z,1021.3
2023-04-18T11:44:02.132Z,1021.3
2023-04-18T11:45:02.128Z,1021.3
2023-04-18T11:46:02.378Z,1021.2
2023-04-18T11:48:02.089Z,1021.2
2023-04-18T11:49:01.741Z,1021.2
2023-04-18T11:50:01.843Z,1021.2
2023-04-18T11:51:01.728Z,1021.2
2023-04-18T11:52:01.812Z,1021.2
2023-04-18T11:53:02.648Z,1021.2
2023-04-18T11:54:02.511Z,1021.2
2023-04-18T11:55:02.535Z,1021.2
2023-04-18T11:56:02.437Z,1021.3
2023-04-18T11:57:02.612Z,1021.3
2023-04-18T11:58:02.413Z,1021.2
2023-04-18T11:59:02.517Z,1021.2
2023-04-18T12:00:03.466Z,1021.2
2023-04-18T12:01:02.303Z,1021.2
2023-04-18T12:02:17.286Z,1021.1
2023-04-18T12:03:02.702Z,1021.1
2023-04-18T12:04:04.296Z,1021.1
2023-04-18T12:05:03.593Z,1021.1
2023-04-18T12:06:03.173Z,1021.2
2023-04-18T12:07:02.132Z,1021.2
2023-04-18T12:08:02.004Z,1021.2
2023-04-18T12:09:02.108Z,1021.2
2023-04-18T12:10:01.982Z,1021.2
2023-04-18T12:11:02.035Z,1021.2
2023-04-18T12:12:01.876Z,1021.2
2023-04-18T12:13:01.892Z,1021.1
2023-04-18T12:14:04.423Z,1021.1
2023-04-18T12:15:02.102Z,1021.1
2023-04-18T12:16:02.286Z,1021
2023-04-18T12:17:02.206Z,1021.1
2023-04-18T12:18:02.488Z,1021.1
2023-04-18T12:19:02.333Z,1021.2
2023-04-18T12:20:02.415Z,1021.2
2023-04-18T12:21:02.127Z,1021.2
2023-04-18T12:22:02.154Z,1021.1
2023-04-18T12:23:01.987Z,1021.1
2023-04-18T12:24:01.960Z,1021.1
2023-04-18T12:25:01.872Z,1021.1
2023-04-18T12:26:01.929Z,1021.1
2023-04-18T12:27:02.021Z,1021
2023-04-18T12:28:01.908Z,1021.1
2023-04-18T12:29:01.683Z,1021.1
2023-04-18T12:30:01.916Z,1021.1
2023-04-18T12:31:03.011Z,1021.1
2023-04-18T12:32:02.699Z,1021.1
2023-04-18T12:33:03.237Z,1021.1
2023-04-18T12:34:01.851Z,1021.1
2023-04-18T12:35:02.099Z,1021.1
2023-04-18T12:36:01.679Z,1021.1
2023-04-18T12:37:01.791Z,1021
2023-04-18T12:38:01.659Z,1021
2023-04-18T12:39:01.661Z,1021.1
2023-04-18T12:40:02.644Z,1021.1
2023-04-18T12:41:02.569Z,1021.1
2023-04-18T12:42:02.656Z,1021.1
2023-04-18T12:43:04.374Z,1021
2023-04-18T12:44:02.135Z,1021.1
2023-04-18T12:45:02.102Z,1021.1
2023-04-18T12:46:02.062Z,1021